createdAt,value
2018-08-17T00:00:51.395Z,5.37
2018-08-17T00:05:56.169Z,6.43
2018-08-17T00:11:01.008Z,5.20
2018-08-17T00:16:06.066Z,5.30
2018-08-17T00:21:10.936Z,6.53
2018-08-17T00:26:15.749Z,5.73
2018-08-17T00:31:20.641Z,8.03
2018-08-17T00:36:25.474Z,6.80
2018-08-17T00:41:30.288Z,6.43
2018-08-17T00:46:35.129Z,6.73
2018-08-17T00:51:39.987Z,5.50
2018-08-17T00:56:44.879Z,6.63
2018-08-17T01:01:49.870Z,5.83
2018-08-17T01:06:55.556Z,5.40
2018-08-17T01:12:00.475Z,7.13
2018-08-17T01:17:05.371Z,5.60
2018-08-17T01:22:10.143Z,5.43
2018-08-17T01:27:14.952Z,6.67
2018-08-17T01:32:19.731Z,5.80
2018-08-17T01:37:24.839Z,6.03
2018-08-17T01:42:29.767Z,5.67
2018-08-17T01:47:34.615Z,5.97
2018-08-17T01:52:39.488Z,6.17
2018-08-17T01:57:44.326Z,5.67
2018-08-17T02:02:49.128Z,6.10
2018-08-17T02:07:53.974Z,6.60
2018-08-17T02:12:58.707Z,6.73
2018-08-17T02:18:03.533Z,6.77
2018-08-17T02:23:08.668Z,5.90
2018-08-17T02:28:13.614Z,6.47
2018-08-17T02:33:18.431Z,6.00
2018-08-17T02:38:23.303Z,8.57
2018-08-17T02:43:28.058Z,6.73
2018-08-17T02:48:32.931Z,6.63
2018-08-17T02:53:37.729Z,7.50
2018-08-17T02:58:42.499Z,6.90
2018-08-17T03:03:47.329Z,6.93
2018-08-17T03:08:52.189Z,6.67
2018-08-17T03:13:57.073Z,7.27
2018-08-17T03:19:01.956Z,7.00
2018-08-17T03:24:06.817Z,6.70
2018-08-17T03:29:11.594Z,7.20
2018-08-17T03:34:16.580Z,6.30
2018-08-17T03:39:21.414Z,7.73
2018-08-17T03:44:26.332Z,6.70
2018-08-17T03:49:31.225Z,6.87
2018-08-17T03:54:36.026Z,6.90
2018-08-17T03:59:40.798Z,6.73
2018-08-17T04:04:45.657Z,7.03
2018-08-17T04:09:50.399Z,7.10
2018-08-17T04:14:55.235Z,7.03
2018-08-17T04:20:00.157Z,7.53
2018-08-17T04:25:06.958Z,6.90
2018-08-17T04:30:11.836Z,7.33
2018-08-17T04:35:16.679Z,6.80
2018-08-17T04:40:21.508Z,6.63
2018-08-17T04:45:26.516Z,6.60
2018-08-17T04:50:31.378Z,7.43
2018-08-17T04:55:36.235Z,5.77
2018-08-17T05:00:41.081Z,6.03
2018-08-17T05:05:46.014Z,7.50
2018-08-17T05:10:50.904Z,6.10
2018-08-17T05:15:55.691Z,5.97
2018-08-17T05:21:00.589Z,7.03
2018-08-17T05:26:05.474Z,9.53
2018-08-17T05:31:10.451Z,6.60
2018-08-17T05:36:15.323Z,6.90
2018-08-17T05:41:20.196Z,5.93
2018-08-17T05:46:24.946Z,7.70
2018-08-17T05:51:30.123Z,8.03
2018-08-17T05:56:35.083Z,6.43
2018-08-17T06:01:39.984Z,8.37
2018-08-17T06:06:44.724Z,9.77
2018-08-17T06:11:49.576Z,7.33
2018-08-17T06:16:54.591Z,8.17
2018-08-17T06:21:59.621Z,8.77
2018-08-17T06:27:04.518Z,9.27
2018-08-17T06:32:10.373Z,10.17
2018-08-17T06:37:15.408Z,8.37
2018-08-17T06:42:20.148Z,6.73
2018-08-17T06:47:24.992Z,6.70
2018-08-17T06:52:29.996Z,7.63
2018-08-17T06:57:34.746Z,8.57
2018-08-17T07:02:39.657Z,7.40
2018-08-17T07:07:44.432Z,6.53
2018-08-17T07:12:49.290Z,7.00
2018-08-17T07:17:54.191Z,7.57
2018-08-17T07:22:59.122Z,8.63
2018-08-17T07:28:03.932Z,6.83
2018-08-17T07:33:08.769Z,9.43
2018-08-17T07:38:14.382Z,8.13
2018-08-17T07:43:19.212Z,8.00
2018-08-17T07:48:24.175Z,6.00
2018-08-17T07:53:29.008Z,8.17
2018-08-17T07:58:34.100Z,5.77
2018-08-17T08:03:38.962Z,6.27
2018-08-17T08:08:43.735Z,6.83
2018-08-17T08:13:48.608Z,7.53
2018-08-17T08:18:53.631Z,7.13
2018-08-17T08:23:58.403Z,7.87
2018-08-17T08:29:03.389Z,6.23
2018-08-17T08:34:08.316Z,6.23
2018-08-17T08:39:14.201Z,5.63
2018-08-17T08:44:19.110Z,4.87
2018-08-17T08:49:23.951Z,7.80
2018-08-17T08:54:28.756Z,4.80
2018-08-17T08:59:33.580Z,4.40
2018-08-17T09:04:38.398Z,5.03
2018-08-17T09:09:43.161Z,4.43
2018-08-17T09:14:47.979Z,3.50
2018-08-17T09:19:52.815Z,4.43
2018-08-17T09:24:57.669Z,5.80
2018-08-17T09:30:02.727Z,6.77
2018-08-17T09:35:07.864Z,4.27
2018-08-17T09:40:12.972Z,4.10
2018-08-17T09:45:17.797Z,5.23
2018-08-17T09:50:22.595Z,6.67
2018-08-17T09:55:27.445Z,3.33
2018-08-17T10:00:37.551Z,4.97
2018-08-17T10:05:43.685Z,3.60
2018-08-17T10:10:48.584Z,5.43
2018-08-17T10:15:53.505Z,4.63
2018-08-17T10:20:58.596Z,3.73
2018-08-17T10:26:03.165Z,4.77
2018-08-17T10:31:08.019Z,3.30
2018-08-17T10:36:12.839Z,6.40
2018-08-17T10:41:17.831Z,4.67
2018-08-17T10:46:22.745Z,3.77
2018-08-17T10:51:27.603Z,4.60
2018-08-17T10:56:32.481Z,3.73
2018-08-17T11:01:42.016Z,2.80
2018-08-17T11:06:46.886Z,2.93
2018-08-17T11:11:51.712Z,4.47
2018-08-17T11:16:57.231Z,4.90
2018-08-17T11:22:02.157Z,2.50
2018-08-17T11:27:07.053Z,2.43
2018-08-17T11:32:11.798Z,3.00
2018-08-17T11:37:16.690Z,3.97
2018-08-17T11:42:21.665Z,3.80
2018-08-17T11:47:26.790Z,2.60
2018-08-17T11:52:38.106Z,2.60
2018-08-17T11:57:42.982Z,2.60
2018-08-17T12:02:48.145Z,2.60
2018-08-17T12:07:52.913Z,4.50
2018-08-17T12:13:05.336Z,2.57
2018-08-17T12:18:10.931Z,2.93
2018-08-17T12:23:16.103Z,3.20
2018-08-17T12:28:20.931Z,1.97
2018-08-17T12:33:25.771Z,2.33
2018-08-17T12:38:30.641Z,3.47
2018-08-17T12:43:37.555Z,2.53
2018-08-17T12:48:42.526Z,5.93
2018-08-17T12:53:47.526Z,2.73
2018-08-17T12:58:52.894Z,3.23
2018-08-17T13:03:57.758Z,2.97
2018-08-17T13:09:02.700Z,3.20
2018-08-17T13:14:12.066Z,2.87
2018-08-17T13:19:16.850Z,2.60
2018-08-17T13:24:21.653Z,4.37
2018-08-17T13:29:26.528Z,5.57
2018-08-17T13:34:31.407Z,2.83
2018-08-17T13:39:36.455Z,4.17
2018-08-17T13:44:41.552Z,3.10
2018-08-17T13:49:46.427Z,3.33
2018-08-17T13:54:51.351Z,3.20
2018-08-17T13:59:56.266Z,2.90
2018-08-17T14:05:01.237Z,3.77
2018-08-17T14:10:07.522Z,4.00
2018-08-17T14:15:12.364Z,4.40
2018-08-17T14:20:17.325Z,2.80
2018-08-17T14:25:22.236Z,2.80
2018-08-17T14:30:27.130Z,6.30
2018-08-17T14:35:32.064Z,4.27
2018-08-17T14:40:36.847Z,3.00
2018-08-17T14:45:41.689Z,3.80
2018-08-17T14:50:46.473Z,5.65
2018-08-17T14:55:51.424Z,3.00
2018-08-17T15:00:56.293Z,2.90
2018-08-17T15:06:01.147Z,3.47
2018-08-17T15:16:26.648Z,3.53
2018-08-17T15:21:31.646Z,3.63
2018-08-17T15:26:36.563Z,3.27
2018-08-17T15:31:41.512Z,3.17
2018-08-17T15:36:46.360Z,3.53
2018-08-17T15:41:51.278Z,3.90
2018-08-17T15:46:57.605Z,3.50
2018-08-17T15:52:03.725Z,5.33
2018-08-17T15:57:08.834Z,5.93
2018-08-17T16:02:13.786Z,3.67
2018-08-17T16:07:18.580Z,4.07
2018-08-17T16:12:23.483Z,5.60
2018-08-17T16:17:28.313Z,4.37
2018-08-17T16:22:33.148Z,4.03
2018-08-17T16:27:38.029Z,7.20
2018-08-17T16:32:43.101Z,4.70
2018-08-17T16:37:49.144Z,6.07
2018-08-17T16:42:53.947Z,5.43
2018-08-17T16:47:59.063Z,4.40
2018-08-17T16:53:03.966Z,7.67
2018-08-17T16:58:08.870Z,4.90
2018-08-17T17:03:13.677Z,4.43
2018-08-17T17:08:18.472Z,5.23
2018-08-17T17:13:23.266Z,4.60
2018-08-17T17:18:28.136Z,5.27
2018-08-17T17:23:33.168Z,7.27
2018-08-17T17:28:38.134Z,5.60
2018-08-17T17:33:42.985Z,5.03
2018-08-17T17:38:47.934Z,6.57
2018-08-17T17:43:52.751Z,4.77
2018-08-17T17:48:57.668Z,9.37
2018-08-17T17:54:02.651Z,7.27
2018-08-17T17:59:15.121Z,6.33
2018-08-17T18:04:20.012Z,5.90
2018-08-17T18:09:24.803Z,5.63
2018-08-17T18:14:29.617Z,5.97
2018-08-17T18:19:34.480Z,6.40
2018-08-17T18:24:39.377Z,6.13
2018-08-17T18:29:44.298Z,6.83
2018-08-17T18:34:49.342Z,5.80
2018-08-17T18:39:54.160Z,7.13
2018-08-17T18:44:59.059Z,6.63
2018-08-17T18:50:04.078Z,6.43
2018-08-17T18:55:09.901Z,8.07
2018-08-17T19:00:15.280Z,5.33
2018-08-17T19:05:20.607Z,6.17
2018-08-17T19:10:25.513Z,8.10
2018-08-17T19:15:34.865Z,5.83
2018-08-17T19:20:39.840Z,6.63
2018-08-17T19:25:44.764Z,5.77
2018-08-17T19:30:49.710Z,9.30
2018-08-17T19:35:55.377Z,5.80
2018-08-17T19:41:00.427Z,5.77
2018-08-17T19:46:05.675Z,6.93
2018-08-17T19:51:15.622Z,6.73
2018-08-17T19:56:21.370Z,5.80
2018-08-17T20:01:26.213Z,5.60
2018-08-17T20:06:31.712Z,6.23
2018-08-17T20:11:36.716Z,6.93
2018-08-17T20:16:41.873Z,7.17
2018-08-17T20:21:49.009Z,5.20
2018-08-17T20:26:54.060Z,4.77
2018-08-17T20:31:59.250Z,3.57
2018-08-17T20:37:04.173Z,4.10
2018-08-17T20:42:09.701Z,3.93
2018-08-17T20:47:14.690Z,3.43
2018-08-17T20:52:20.608Z,3.37
2018-08-17T20:57:25.692Z,5.23
2018-08-17T21:02:30.665Z,5.67
2018-08-17T21:07:35.646Z,4.50
2018-08-17T21:12:40.678Z,3.77
2018-08-17T21:17:45.651Z,4.37
2018-08-17T21:22:50.812Z,3.40
2018-08-17T21:27:55.728Z,4.53
2018-08-17T21:33:00.873Z,4.87
2018-08-17T21:38:05.925Z,5.43
2018-08-17T21:43:10.855Z,6.17
2018-08-17T21:48:22.286Z,3.53
2018-08-17T21:53:27.133Z,3.23
2018-08-17T21:58:32.109Z,3.57
2018-08-17T22:03:37.675Z,6.43
2018-08-17T22:08:42.544Z,5.70
2018-08-17T22:13:47.376Z,3.10
2018-08-17T22:18:52.579Z,3.20
2018-08-17T22:23:57.417Z,3.60
2018-08-17T22:29:02.602Z,3.73
2018-08-17T22:34:07.540Z,3.37
2018-08-17T22:39:12.327Z,3.17
2018-08-17T22:44:23.071Z,4.27
2018-08-17T22:49:27.944Z,4.30
2018-08-17T22:54:32.938Z,3.23
2018-08-17T22:59:37.913Z,3.13
2018-08-17T23:04:43.116Z,3.00
2018-08-17T23:09:47.997Z,5.13
2018-08-17T23:14:53.411Z,5.00
2018-08-17T23:19:59.050Z,3.73
2018-08-17T23:25:04.128Z,4.40
2018-08-17T23:30:09.048Z,3.83
2018-08-17T23:35:14.046Z,5.23
2018-08-17T23:40:18.988Z,3.37
2018-08-17T23:45:23.916Z,3.40
2018-08-17T23:50:28.841Z,4.50
2018-08-17T23:55:33.694Z,3.40
